createdAt,value
2019-04-05T00:01:27.597Z,17.27
2019-04-05T00:06:35.402Z,20.57
2019-04-05T00:11:42.575Z,18.45
2019-04-05T00:16:49.464Z,18.10
2019-04-05T00:21:56.596Z,20.77
2019-04-05T00:27:03.650Z,16.60
2019-04-05T00:32:10.595Z,18.70
2019-04-05T00:37:17.587Z,19.67
2019-04-05T00:42:24.593Z,18.98
2019-04-05T00:47:31.591Z,20.25
2019-04-05T00:52:38.591Z,15.70
2019-04-05T00:57:45.606Z,19.57
2019-04-05T01:02:53.586Z,20.23
2019-04-05T01:08:00.942Z,23.00
2019-04-05T01:13:08.502Z,23.70
2019-04-05T01:18:15.657Z,23.65
2019-04-05T01:23:24.040Z,20.88
2019-04-05T01:33:37.639Z,22.48
2019-04-05T01:38:44.598Z,25.02
2019-04-05T01:43:51.592Z,24.63
2019-04-05T01:48:58.468Z,22.20
2019-04-05T01:54:05.598Z,21.40
2019-04-05T01:59:12.487Z,25.12
2019-04-05T02:04:19.585Z,17.27
2019-04-05T02:09:26.595Z,23.45
2019-04-05T02:14:33.605Z,28.92
2019-04-05T02:19:40.585Z,21.62
2019-04-05T02:24:47.601Z,27.40
2019-04-05T02:29:54.609Z,31.62
2019-04-05T02:35:01.543Z,28.45
2019-04-05T02:40:14.081Z,22.90
2019-04-05T02:45:22.120Z,28.10
2019-04-05T02:50:33.371Z,27.25
2019-04-05T02:55:43.117Z,29.92
2019-04-05T03:00:50.570Z,24.43
2019-04-05T03:05:58.390Z,24.77
2019-04-05T03:11:10.564Z,21.90
2019-04-05T03:16:39.367Z,29.45
2019-04-05T03:21:38.231Z,28.57
2019-04-05T03:26:52.320Z,24.70
2019-04-05T03:31:59.474Z,27.20
2019-04-05T03:37:06.564Z,24.30
2019-04-05T03:42:13.933Z,30.97
2019-04-05T03:47:21.253Z,22.20
2019-04-05T03:52:28.595Z,22.27
2019-04-05T03:57:35.609Z,22.58
2019-04-05T04:05:40.790Z,31.65
2019-04-05T04:10:49.514Z,27.13
2019-04-05T04:15:57.259Z,27.20
2019-04-05T04:26:30.460Z,25.90
2019-04-05T04:31:37.506Z,24.77
2019-04-05T04:36:44.611Z,25.80
2019-04-05T04:42:40.883Z,30.88
2019-04-05T04:47:48.677Z,29.05
2019-04-05T04:57:31.092Z,33.75
2019-04-05T05:02:38.569Z,26.70
2019-04-05T05:12:50.169Z,24.40
2019-04-05T05:17:58.948Z,32.30
2019-04-05T05:26:23.048Z,28.73
2019-04-05T05:32:48.055Z,27.10
2019-04-05T05:37:55.454Z,23.13
2019-04-05T05:43:02.506Z,24.92
2019-04-05T05:48:09.709Z,29.40
2019-04-05T05:53:16.574Z,29.48
2019-04-05T05:58:25.375Z,27.87
2019-04-05T06:03:32.474Z,44.48
2019-04-05T06:08:39.467Z,53.78
2019-04-05T06:19:51.716Z,63.80
2019-04-05T06:24:58.557Z,60.43
2019-04-05T06:30:06.467Z,65.75
2019-04-05T06:35:13.448Z,85.70
2019-04-05T06:40:55.448Z,87.97
2019-04-05T06:48:42.572Z,106.47
2019-04-05T06:55:54.623Z,97.65
2019-04-05T07:06:28.247Z,86.10
2019-04-05T07:11:36.383Z,90.25
2019-04-05T07:16:43.432Z,90.62
2019-04-05T07:21:50.454Z,98.55
2019-04-05T07:27:35.613Z,91.22
2019-04-05T07:32:43.560Z,98.75
2019-04-05T07:41:21.039Z,101.50
2019-04-05T07:53:35.468Z,113.50
2019-04-05T08:10:54.253Z,102.35
2019-04-05T08:16:02.264Z,107.15
2019-04-05T08:21:09.490Z,104.78
2019-04-05T08:26:16.546Z,101.78
2019-04-05T08:31:23.591Z,94.05
2019-04-05T08:36:32.649Z,113.15
2019-04-05T08:42:59.692Z,105.52
2019-04-05T08:48:06.632Z,107.10
2019-04-05T08:55:23.753Z,105.37
2019-04-05T09:00:30.579Z,103.72
2019-04-05T09:06:21.635Z,116.12
2019-04-05T09:16:40.645Z,126.20
2019-04-05T09:21:47.567Z,129.45
2019-04-05T09:26:54.597Z,115.25
2019-04-05T09:32:01.462Z,121.00
2019-04-05T09:37:08.459Z,116.93
2019-04-05T09:44:25.692Z,121.87
2019-04-05T09:49:37.126Z,116.57
2019-04-05T09:54:41.590Z,115.17
2019-04-05T09:59:48.434Z,118.25
2019-04-05T10:10:02.664Z,137.15
2019-04-05T10:25:59.422Z,119.33
2019-04-05T10:31:06.585Z,118.25
2019-04-05T10:36:13.493Z,114.32
2019-04-05T10:41:22.909Z,121.13
2019-04-05T10:46:29.441Z,117.70
2019-04-05T10:51:36.461Z,109.57
2019-04-05T10:56:43.517Z,120.57
2019-04-05T11:01:50.519Z,105.50
2019-04-05T11:06:57.443Z,104.47
2019-04-05T11:12:04.579Z,105.65
2019-04-05T11:17:11.453Z,82.82
2019-04-05T11:27:11.442Z,82.95
2019-04-05T11:32:18.564Z,77.80
2019-04-05T11:37:25.596Z,78.42
2019-04-05T11:48:34.502Z,74.00
2019-04-05T11:53:41.483Z,77.10
2019-04-05T11:58:50.268Z,76.65
2019-04-05T12:08:36.434Z,76.53
2019-04-05T12:13:43.498Z,74.50
2019-04-05T12:25:56.060Z,70.30
2019-04-05T12:31:03.468Z,67.53
2019-04-05T12:36:58.113Z,63.75
2019-04-05T12:44:24.490Z,65.05
2019-04-05T12:49:31.494Z,76.00
2019-04-05T12:58:43.857Z,67.82
2019-04-05T13:03:51.388Z,65.77
2019-04-05T13:08:58.673Z,63.67
2019-04-05T13:14:05.607Z,64.42
2019-04-05T13:19:12.593Z,63.28
2019-04-05T13:24:19.469Z,66.37
2019-04-05T13:36:28.898Z,60.15
2019-04-05T13:41:35.647Z,60.80
2019-04-05T13:48:09.767Z,64.15
2019-04-05T13:57:28.398Z,59.75
2019-04-05T14:04:17.024Z,61.90
2019-04-05T14:09:24.607Z,62.88
2019-04-05T14:14:31.496Z,61.33
2019-04-05T14:19:38.460Z,65.15
2019-04-05T14:29:17.744Z,63.40
2019-04-05T14:35:00.901Z,68.28
2019-04-05T14:40:10.526Z,64.67
2019-04-05T14:49:07.590Z,66.65
2019-04-05T14:54:14.525Z,70.40
2019-04-05T15:03:14.675Z,62.53
2019-04-05T15:08:21.584Z,68.05
2019-04-05T15:13:28.590Z,64.17
2019-04-05T15:18:35.464Z,66.30
2019-04-05T15:27:03.688Z,61.68
2019-04-05T15:38:40.717Z,67.50
2019-04-05T15:43:47.624Z,66.40
2019-04-05T15:50:44.686Z,65.08
2019-04-05T15:55:51.572Z,61.58
2019-04-05T16:00:58.689Z,67.20
2019-04-05T16:09:46.653Z,66.82
2019-04-05T16:14:53.607Z,64.12
2019-04-05T16:25:08.687Z,70.65
2019-04-05T16:30:16.032Z,67.53
2019-04-05T16:35:23.238Z,68.10
2019-04-05T16:40:31.452Z,65.28
2019-04-05T16:53:00.582Z,71.77
2019-04-05T16:58:07.594Z,78.07
2019-04-05T17:03:14.630Z,74.65
2019-04-05T17:12:54.678Z,66.72
2019-04-05T17:18:01.698Z,70.95
2019-04-05T17:32:01.671Z,75.30
2019-04-05T17:37:08.437Z,80.72
2019-04-05T17:42:15.578Z,72.00
2019-04-05T17:47:22.452Z,75.20
2019-04-05T17:52:29.587Z,77.22
2019-04-05T17:57:36.565Z,78.92
2019-04-05T18:02:43.463Z,81.85
2019-04-05T18:07:50.591Z,82.05
2019-04-05T18:12:57.927Z,82.47
2019-04-05T18:18:04.921Z,87.15
2019-04-05T18:23:23.933Z,81.35
2019-04-05T18:28:20.449Z,80.53
2019-04-05T18:33:28.556Z,81.65
2019-04-05T18:38:35.703Z,79.92
2019-04-05T18:43:42.560Z,79.53
2019-04-05T18:48:49.450Z,84.95
2019-04-05T18:53:56.459Z,90.15
2019-04-05T18:59:03.656Z,85.00
2019-04-05T19:04:10.605Z,77.62
2019-04-05T19:09:18.585Z,78.75
2019-04-05T19:14:25.486Z,85.53
2019-04-05T19:19:32.580Z,82.70
2019-04-05T19:24:39.591Z,81.55
2019-04-05T19:29:46.453Z,82.22
2019-04-05T19:50:20.477Z,81.05
2019-04-05T20:04:49.580Z,81.82
2019-04-05T20:09:56.586Z,81.22
2019-04-05T20:15:03.471Z,86.45
2019-04-05T20:25:32.263Z,81.28
2019-04-05T20:35:02.707Z,82.30
2019-04-05T20:56:02.447Z,76.37
2019-04-05T21:01:09.463Z,78.28
2019-04-05T21:06:17.304Z,73.33
2019-04-05T21:11:27.052Z,74.37
2019-04-05T21:20:28.584Z,77.20
2019-04-05T21:25:35.588Z,79.15
2019-04-05T21:32:43.599Z,72.80
2019-04-05T21:39:29.640Z,77.42
2019-04-05T21:49:52.448Z,85.07
2019-04-05T21:54:59.675Z,78.67
2019-04-05T22:00:45.867Z,88.60
2019-04-05T22:05:53.586Z,81.67
2019-04-05T22:11:00.576Z,81.02
2019-04-05T22:25:56.588Z,90.12
2019-04-05T22:31:03.591Z,81.30
2019-04-05T22:36:10.598Z,78.85
2019-04-05T22:41:17.467Z,78.80
2019-04-05T22:46:24.575Z,83.52
2019-04-05T22:51:31.556Z,78.70
2019-04-05T23:01:45.582Z,83.10
2019-04-05T23:11:35.632Z,77.08
2019-04-05T23:17:57.697Z,86.57
2019-04-05T23:23:05.638Z,84.30
2019-04-05T23:31:46.121Z,87.05
2019-04-05T23:36:53.470Z,79.80
2019-04-05T23:42:00.509Z,76.70
2019-04-05T23:47:07.487Z,74.30
2019-04-05T23:52:14.582Z,64.58
2019-04-05T23:57:21.506Z,58.52
